首页
METAR-TAF:

METAR-TAF

机场 :

Chautauqua County/Jamestown Airport

Jamestown, 紐約州, 美国

纬度: 42-09N, 经度: 079-16W, 海拔: 525米

当前天气观测

该预报发布于18分钟前的10:56 UTC
风速4节,风向
温度 15°C
湿度 88%
气压 1024 hPa
能見度: 16.1公里
少量云层高于100英尺

METAR: KJHW 271056Z AUTO 18004KT 10SM FEW001 15/13 A3023 RMK AO2 SLP233 T01500128

时间: 07:14 (11:14 UTC)

预报

该预报发布于2小时和50分钟前的08:24 UTC
预报有效从27日的 08点(UTC)到 28日的 06点(UTC)
风速节,风向
能見度: 10公里
多云层高于25000英尺
从 27日的 1600点(UTC)
风速5节,风向西转西南
能見度: 10公里
少量云层高于5000英尺
从 27日的 1900点(UTC)
风速6节,风向西转西北
能見度: 10公里
少量云层高于5000英尺
从 28日的 0200点(UTC)
风速节,风向
能見度: 10公里
少量云层高于25000英尺

TAF: KJHW 270824Z 2708/2806 00000KT P6SM BKN250 FM271600 24005KT P6SM FEW050 FM271900 30006KT P6SM FEW050 FM280200 00000KT P6SM FEW250

超过4000个机场的气象观测和天气预报(METAR&TAF报告)。

可查询的气象台以黄色和红色小点在地图上表示。

将鼠标移到小点上方,可查看气象台名称。

然后点击查看天气观测和预报。

如需切换地图:点击带黑十字的绿色按钮放大地图;点击带横线的绿色按钮缩小地图;或者点击绿色箭头查看邻近地区的地图。


METAR-TAF: